createdAt,value
2018-12-29T00:01:36.671Z,4.70
2018-12-29T00:04:25.282Z,4.60
2018-12-29T00:07:13.285Z,4.70
2018-12-29T00:10:01.860Z,4.70
2018-12-29T00:12:51.825Z,4.80
2018-12-29T00:15:39.866Z,4.80
2018-12-29T00:18:27.973Z,4.80
2018-12-29T00:21:17.098Z,4.90
2018-12-29T00:24:05.206Z,4.80
2018-12-29T00:26:55.200Z,4.80
2018-12-29T00:29:43.520Z,4.70
2018-12-29T00:32:31.838Z,4.70
2018-12-29T00:35:20.519Z,4.70
2018-12-29T00:38:08.679Z,4.60
2018-12-29T00:40:56.794Z,4.60
2018-12-29T00:43:45.304Z,4.60
2018-12-29T00:46:33.794Z,4.60
2018-12-29T00:49:30.070Z,4.50
2018-12-29T00:52:18.815Z,4.60
2018-12-29T00:55:07.371Z,4.60
2018-12-29T00:57:55.174Z,4.70
2018-12-29T01:00:44.152Z,4.70
2018-12-29T01:03:32.427Z,4.80
2018-12-29T01:06:20.897Z,4.80
2018-12-29T01:09:09.173Z,4.80
2018-12-29T01:11:57.494Z,4.90
2018-12-29T01:14:45.066Z,4.90
2018-12-29T01:17:33.972Z,4.80
2018-12-29T01:20:22.405Z,4.80
2018-12-29T01:23:11.090Z,4.90
2018-12-29T01:26:01.591Z,4.90
2018-12-29T01:28:50.267Z,4.90
2018-12-29T01:31:40.149Z,5.00
2018-12-29T01:34:28.451Z,5.00
2018-12-29T01:37:17.191Z,5.00
2018-12-29T01:40:05.447Z,5.00
2018-12-29T01:42:57.501Z,5.00
2018-12-29T01:45:46.098Z,4.90
2018-12-29T01:48:34.123Z,5.00
2018-12-29T01:51:23.190Z,5.00
2018-12-29T01:54:11.677Z,5.10
2018-12-29T01:57:00.249Z,5.10
2018-12-29T01:59:49.030Z,5.00
2018-12-29T02:02:37.518Z,5.00
2018-12-29T02:05:25.526Z,5.10
2018-12-29T02:08:13.630Z,5.10
2018-12-29T02:11:01.946Z,5.10
2018-12-29T02:13:50.178Z,5.10
2018-12-29T02:16:38.510Z,5.00
2018-12-29T02:19:29.935Z,5.00
2018-12-29T02:22:18.635Z,5.00
2018-12-29T02:25:07.086Z,5.00
2018-12-29T02:27:56.023Z,5.00
2018-12-29T02:30:44.348Z,5.00
2018-12-29T02:33:32.866Z,5.00
2018-12-29T02:36:21.495Z,5.00
2018-12-29T02:39:12.799Z,4.90
2018-12-29T02:42:01.251Z,4.90
2018-12-29T02:44:49.674Z,4.90
2018-12-29T02:47:37.307Z,4.80
2018-12-29T02:50:25.855Z,4.80
2018-12-29T02:53:14.222Z,4.80
2018-12-29T02:56:02.839Z,4.80
2018-12-29T02:58:51.396Z,4.80
2018-12-29T03:01:39.880Z,4.80
2018-12-29T03:04:29.026Z,4.80
2018-12-29T03:07:21.611Z,4.90
2018-12-29T03:10:10.170Z,4.90
2018-12-29T03:12:58.366Z,4.80
2018-12-29T03:15:47.287Z,4.90
2018-12-29T03:18:35.946Z,4.90
2018-12-29T03:21:26.741Z,4.90
2018-12-29T03:24:15.302Z,4.90
2018-12-29T03:27:02.786Z,4.90
2018-12-29T03:29:51.214Z,4.90
2018-12-29T03:32:39.008Z,4.80
2018-12-29T03:35:27.535Z,4.80
2018-12-29T03:38:15.969Z,4.90
2018-12-29T03:41:03.786Z,4.90
2018-12-29T03:43:51.803Z,4.80
2018-12-29T03:46:40.283Z,4.80
2018-12-29T03:49:28.813Z,4.80
2018-12-29T03:52:16.881Z,4.80
2018-12-29T03:55:05.483Z,4.80
2018-12-29T03:57:53.332Z,4.80
2018-12-29T04:00:42.198Z,4.80
2018-12-29T04:03:30.863Z,4.80
2018-12-29T04:06:19.065Z,4.70
2018-12-29T04:09:32.130Z,4.80
2018-12-29T04:12:25.666Z,4.80
2018-12-29T04:15:13.638Z,4.80
2018-12-29T04:18:03.451Z,4.70
2018-12-29T04:20:50.925Z,4.80
2018-12-29T04:23:38.767Z,4.90
2018-12-29T04:26:26.650Z,4.80
2018-12-29T04:29:14.454Z,4.80
2018-12-29T04:32:02.559Z,4.80
2018-12-29T04:34:51.133Z,4.80
2018-12-29T04:37:39.002Z,4.90
2018-12-29T04:40:28.275Z,4.90
2018-12-29T04:43:17.207Z,4.80
2018-12-29T04:46:08.374Z,4.90
2018-12-29T04:48:57.107Z,4.80
2018-12-29T04:51:45.383Z,4.80
2018-12-29T04:54:33.532Z,4.90
2018-12-29T04:57:22.053Z,4.90
2018-12-29T05:00:14.159Z,5.00
2018-12-29T05:03:02.180Z,4.90
2018-12-29T05:05:50.855Z,5.00
2018-12-29T05:08:39.041Z,5.00
2018-12-29T05:11:27.999Z,5.10
2018-12-29T05:14:16.194Z,5.10
2018-12-29T05:17:05.927Z,5.00
2018-12-29T05:19:54.226Z,5.00
2018-12-29T05:22:42.699Z,5.00
2018-12-29T05:25:31.125Z,5.00
2018-12-29T05:28:19.031Z,5.00
2018-12-29T05:31:07.350Z,5.00
2018-12-29T05:33:56.475Z,5.00
2018-12-29T05:36:45.306Z,5.00
2018-12-29T05:39:33.535Z,5.10
2018-12-29T05:42:31.771Z,5.00
2018-12-29T05:45:20.030Z,5.10
2018-12-29T05:48:08.331Z,5.10
2018-12-29T05:51:00.228Z,5.10
2018-12-29T05:53:48.069Z,5.10
2018-12-29T05:56:36.092Z,5.10
2018-12-29T05:59:27.364Z,5.10
2018-12-29T06:02:15.710Z,5.10
2018-12-29T06:05:14.621Z,5.20
2018-12-29T06:08:02.922Z,5.20
2018-12-29T06:10:52.098Z,5.20
2018-12-29T06:13:40.842Z,5.10
2018-12-29T06:16:29.280Z,5.20
2018-12-29T06:19:17.331Z,5.20
2018-12-29T06:22:05.910Z,5.20
2018-12-29T06:24:53.685Z,5.20
2018-12-29T06:27:46.227Z,5.20
2018-12-29T06:30:35.030Z,5.20
2018-12-29T06:33:23.283Z,5.20
2018-12-29T06:36:11.775Z,5.20
2018-12-29T06:38:59.982Z,5.20
2018-12-29T06:41:48.925Z,5.20
2018-12-29T06:44:36.593Z,5.20
2018-12-29T06:47:24.979Z,5.20
2018-12-29T06:50:13.594Z,5.20
2018-12-29T06:53:05.135Z,5.10
2018-12-29T06:55:53.387Z,5.20
2018-12-29T06:58:45.495Z,5.20
2018-12-29T07:01:33.934Z,5.30
2018-12-29T07:04:22.610Z,5.30
2018-12-29T07:07:13.415Z,5.30
2018-12-29T07:10:01.358Z,5.30
2018-12-29T07:12:49.623Z,5.30
2018-12-29T07:15:41.480Z,5.30
2018-12-29T07:18:29.457Z,5.30
2018-12-29T07:21:17.194Z,5.40
2018-12-29T07:24:05.003Z,5.40
2018-12-29T07:26:52.730Z,5.40
2018-12-29T07:29:41.458Z,5.40
2018-12-29T07:32:31.933Z,5.40
2018-12-29T07:35:20.055Z,5.40
2018-12-29T07:38:11.622Z,5.40
2018-12-29T07:41:00.017Z,5.50
2018-12-29T07:43:49.195Z,5.50
2018-12-29T07:46:38.096Z,5.50
2018-12-29T07:49:26.308Z,5.50
2018-12-29T07:52:14.214Z,5.50
2018-12-29T07:55:02.407Z,5.50
2018-12-29T07:57:51.534Z,5.60
2018-12-29T08:00:42.476Z,5.60
2018-12-29T08:03:30.829Z,5.60
2018-12-29T08:06:19.290Z,5.60
2018-12-29T08:09:08.302Z,5.60
2018-12-29T08:11:56.324Z,5.60
2018-12-29T08:14:44.847Z,5.70
2018-12-29T08:17:32.766Z,5.70
2018-12-29T08:20:21.246Z,5.70
2018-12-29T08:23:09.074Z,5.80
2018-12-29T08:25:57.463Z,5.80
2018-12-29T08:28:45.771Z,5.90
2018-12-29T08:31:34.175Z,5.80
2018-12-29T08:34:24.062Z,5.90
2018-12-29T08:37:12.622Z,5.90
2018-12-29T08:40:01.041Z,5.90
2018-12-29T08:42:49.211Z,5.90
2018-12-29T08:45:38.470Z,5.90
2018-12-29T08:48:27.178Z,6.00
2018-12-29T08:51:15.852Z,6.00
2018-12-29T08:54:04.246Z,5.90
2018-12-29T08:56:52.933Z,5.90
2018-12-29T08:59:41.827Z,6.00
2018-12-29T09:02:30.611Z,6.00
2018-12-29T09:05:18.967Z,6.10
2018-12-29T09:08:07.422Z,6.10
2018-12-29T09:10:55.650Z,6.10
2018-12-29T09:13:43.310Z,6.10
2018-12-29T09:16:31.854Z,6.10
2018-12-29T09:19:26.972Z,6.20
2018-12-29T09:22:10.149Z,6.20
2018-12-29T09:24:58.566Z,6.20
2018-12-29T09:27:47.362Z,6.20
2018-12-29T09:30:36.839Z,6.30
2018-12-29T09:33:25.354Z,6.30
2018-12-29T09:36:13.607Z,6.40
2018-12-29T09:39:01.785Z,6.30
2018-12-29T09:41:51.442Z,6.30
2018-12-29T09:44:40.394Z,6.30
2018-12-29T09:47:28.947Z,6.40
2018-12-29T09:50:17.043Z,6.40
2018-12-29T09:53:05.495Z,6.40
2018-12-29T09:55:54.163Z,6.40
2018-12-29T09:58:42.767Z,6.50
2018-12-29T10:01:31.036Z,6.50
2018-12-29T10:04:19.517Z,6.50
2018-12-29T10:07:08.073Z,6.60
2018-12-29T10:09:56.465Z,6.60
2018-12-29T10:12:45.150Z,6.60
2018-12-29T10:15:33.338Z,6.60
2018-12-29T10:18:21.886Z,6.60
2018-12-29T10:21:10.128Z,6.70
2018-12-29T10:23:58.683Z,6.60
2018-12-29T10:26:46.582Z,6.60
2018-12-29T10:29:35.339Z,6.70
2018-12-29T10:32:23.729Z,6.80
2018-12-29T10:35:11.951Z,6.80
2018-12-29T10:38:00.343Z,6.80
2018-12-29T10:40:48.494Z,6.80
2018-12-29T10:43:37.374Z,6.80
2018-12-29T10:46:25.462Z,6.80
2018-12-29T10:49:14.355Z,6.80
2018-12-29T10:52:02.481Z,6.90
2018-12-29T10:54:50.431Z,7.00
2018-12-29T10:57:38.026Z,7.00
2018-12-29T11:00:26.440Z,7.00
2018-12-29T11:03:14.507Z,7.00
2018-12-29T11:06:02.957Z,7.10
2018-12-29T11:08:51.311Z,7.10
2018-12-29T11:11:39.807Z,7.10
2018-12-29T11:14:27.963Z,7.10
2018-12-29T11:17:16.080Z,7.10
2018-12-29T11:20:04.606Z,7.10
2018-12-29T11:22:53.632Z,7.20
2018-12-29T11:25:42.142Z,7.20
2018-12-29T11:28:30.097Z,7.20
2018-12-29T11:31:18.477Z,7.30
2018-12-29T11:34:07.298Z,7.30
2018-12-29T11:36:55.338Z,7.30
2018-12-29T11:39:43.166Z,7.20
2018-12-29T11:42:31.860Z,7.20
2018-12-29T11:45:19.623Z,7.30
2018-12-29T11:48:08.418Z,7.40
2018-12-29T11:50:58.783Z,7.50
2018-12-29T11:53:46.753Z,7.50
2018-12-29T11:56:35.843Z,7.50
2018-12-29T11:59:24.574Z,7.50
2018-12-29T12:02:13.079Z,7.40
2018-12-29T12:05:01.691Z,7.50
2018-12-29T12:07:49.679Z,7.40
2018-12-29T12:10:38.118Z,7.40
2018-12-29T12:13:28.008Z,7.50
2018-12-29T12:16:16.807Z,7.50
2018-12-29T12:19:06.660Z,7.50
2018-12-29T12:21:55.819Z,7.40
2018-12-29T12:24:43.822Z,7.30
2018-12-29T12:27:32.595Z,7.40
2018-12-29T12:30:22.200Z,7.40
2018-12-29T12:33:10.010Z,7.40
2018-12-29T12:35:58.226Z,7.40
2018-12-29T12:38:46.486Z,7.40
2018-12-29T12:41:34.526Z,7.40
2018-12-29T12:44:23.782Z,7.50
2018-12-29T12:47:12.582Z,7.50
2018-12-29T12:50:01.517Z,7.50
2018-12-29T12:52:50.727Z,7.50
2018-12-29T12:55:38.470Z,7.60
2018-12-29T12:58:27.595Z,7.60
2018-12-29T13:01:17.166Z,7.60
2018-12-29T13:04:05.469Z,7.70
2018-12-29T13:06:54.363Z,7.70
2018-12-29T13:09:42.669Z,7.70
2018-12-29T13:12:31.666Z,7.70
2018-12-29T13:15:19.919Z,7.60
2018-12-29T13:18:13.017Z,7.70
2018-12-29T13:20:57.773Z,7.70
2018-12-29T13:23:46.095Z,7.70
2018-12-29T13:26:34.634Z,7.70
2018-12-29T13:29:23.424Z,7.60
2018-12-29T13:32:11.347Z,7.60
2018-12-29T13:34:59.499Z,7.70
2018-12-29T13:37:47.082Z,7.70
2018-12-29T13:40:35.682Z,7.70
2018-12-29T13:43:24.151Z,7.70
2018-12-29T13:46:12.380Z,7.60
2018-12-29T13:49:00.674Z,7.60
2018-12-29T13:51:48.459Z,7.60
2018-12-29T13:54:37.066Z,7.60
2018-12-29T13:57:25.780Z,7.60
2018-12-29T14:00:14.831Z,7.60
2018-12-29T14:03:03.544Z,7.60
2018-12-29T14:05:52.127Z,7.50
2018-12-29T14:08:41.269Z,7.60
2018-12-29T14:11:29.487Z,7.60
2018-12-29T14:14:18.447Z,7.50
2018-12-29T14:17:07.197Z,7.60
2018-12-29T14:19:55.577Z,7.60
2018-12-29T14:22:43.814Z,7.60
2018-12-29T14:25:32.162Z,7.60
2018-12-29T14:28:20.318Z,7.60
2018-12-29T14:31:09.065Z,7.60
2018-12-29T14:33:57.743Z,7.50
2018-12-29T14:36:45.519Z,7.50
2018-12-29T14:39:34.235Z,7.50
2018-12-29T14:42:23.798Z,7.50
2018-12-29T14:45:12.338Z,7.50
2018-12-29T14:48:00.552Z,7.50
2018-12-29T14:50:48.814Z,7.50
2018-12-29T14:53:36.974Z,7.40
2018-12-29T14:56:25.484Z,7.30
2018-12-29T14:59:14.303Z,7.30
2018-12-29T15:02:02.991Z,7.30
2018-12-29T15:04:52.750Z,7.30
2018-12-29T15:07:41.633Z,7.30
2018-12-29T15:10:30.440Z,7.30
2018-12-29T15:13:18.806Z,7.20
2018-12-29T15:16:07.424Z,7.20
2018-12-29T15:18:56.775Z,7.10
2018-12-29T15:21:45.211Z,7.10
2018-12-29T15:24:33.110Z,7.00
2018-12-29T15:27:22.025Z,7.00
2018-12-29T15:30:10.967Z,7.10
2018-12-29T15:32:59.258Z,7.10
2018-12-29T15:35:47.254Z,7.10
2018-12-29T15:38:35.232Z,7.00
2018-12-29T15:41:23.430Z,7.00
2018-12-29T15:44:12.815Z,7.00
2018-12-29T15:47:00.746Z,7.00
2018-12-29T15:49:49.168Z,7.00
2018-12-29T15:52:37.514Z,7.00
2018-12-29T15:55:26.284Z,7.10
2018-12-29T15:58:14.075Z,7.10
2018-12-29T16:01:02.428Z,7.10
2018-12-29T16:03:52.714Z,7.10
2018-12-29T16:06:41.343Z,7.10
2018-12-29T16:09:30.091Z,7.10
2018-12-29T16:12:19.148Z,7.00
2018-12-29T16:15:07.841Z,7.00
2018-12-29T16:17:57.139Z,7.00
2018-12-29T16:20:53.116Z,7.00
2018-12-29T16:23:36.343Z,7.00
2018-12-29T16:26:24.638Z,6.90
2018-12-29T16:29:12.243Z,6.90
2018-12-29T16:32:01.038Z,6.90
2018-12-29T16:34:49.357Z,7.00
2018-12-29T16:37:37.978Z,6.90
2018-12-29T16:40:26.247Z,6.90
2018-12-29T16:43:14.950Z,6.90
2018-12-29T16:46:02.782Z,6.90
2018-12-29T16:48:56.034Z,6.90
2018-12-29T16:51:44.147Z,6.90
2018-12-29T16:54:32.150Z,6.90
2018-12-29T16:57:22.113Z,6.90
2018-12-29T17:00:10.046Z,6.90
2018-12-29T17:02:59.489Z,7.00
2018-12-29T17:05:47.896Z,7.00
2018-12-29T17:08:36.351Z,7.00
2018-12-29T17:11:25.109Z,7.00
2018-12-29T17:14:13.051Z,7.00
2018-12-29T17:17:01.109Z,7.00
2018-12-29T17:19:50.270Z,7.10
2018-12-29T17:22:38.214Z,7.10
2018-12-29T17:25:26.491Z,7.10
2018-12-29T17:28:14.546Z,7.10
2018-12-29T17:31:02.733Z,7.20
2018-12-29T17:33:50.774Z,7.20
2018-12-29T17:36:42.031Z,7.20
2018-12-29T17:39:29.287Z,7.30
2018-12-29T17:42:17.150Z,7.30
2018-12-29T17:45:05.590Z,7.40
2018-12-29T17:47:55.019Z,7.40
2018-12-29T17:50:43.490Z,7.40
2018-12-29T17:53:32.231Z,7.40
2018-12-29T17:56:20.695Z,7.40
2018-12-29T17:59:09.155Z,7.40
2018-12-29T18:01:57.597Z,7.40
2018-12-29T18:04:46.680Z,7.40
2018-12-29T18:07:34.274Z,7.40
2018-12-29T18:10:23.690Z,7.40
2018-12-29T18:13:12.502Z,7.40
2018-12-29T18:16:01.251Z,7.40
2018-12-29T18:18:49.222Z,7.50
2018-12-29T18:21:38.723Z,7.50
2018-12-29T18:24:26.834Z,7.50
2018-12-29T18:27:15.475Z,7.50
2018-12-29T18:30:03.830Z,7.50
2018-12-29T18:32:52.298Z,7.60
2018-12-29T18:35:40.697Z,7.60
2018-12-29T18:38:28.854Z,7.60
2018-12-29T18:41:17.666Z,7.60
2018-12-29T18:44:06.567Z,7.70
2018-12-29T18:46:55.090Z,7.60
2018-12-29T18:49:43.498Z,7.60
2018-12-29T18:52:32.015Z,7.70
2018-12-29T18:55:20.461Z,7.70
2018-12-29T18:58:09.514Z,7.70
2018-12-29T19:00:57.942Z,7.70
2018-12-29T19:03:46.547Z,7.80
2018-12-29T19:06:35.035Z,7.90
2018-12-29T19:09:23.566Z,7.90
2018-12-29T19:12:11.921Z,7.90
2018-12-29T19:15:00.644Z,7.90
2018-12-29T19:17:50.111Z,7.90
2018-12-29T19:20:39.040Z,8.00
2018-12-29T19:23:28.309Z,8.00
2018-12-29T19:26:16.931Z,8.00
2018-12-29T19:29:05.306Z,8.10
2018-12-29T19:31:53.134Z,8.10
2018-12-29T19:34:42.302Z,8.20
2018-12-29T19:37:31.040Z,8.30
2018-12-29T19:40:19.894Z,8.30
2018-12-29T19:43:09.118Z,8.20
2018-12-29T19:45:57.817Z,8.30
2018-12-29T19:48:46.131Z,8.30
2018-12-29T19:51:34.393Z,8.40
2018-12-29T19:54:22.425Z,8.40
2018-12-29T19:57:11.341Z,8.50
2018-12-29T20:00:00.483Z,8.50
2018-12-29T20:02:48.739Z,8.50
2018-12-29T20:05:37.511Z,8.60
2018-12-29T20:08:25.690Z,8.70
2018-12-29T20:11:14.230Z,8.80
2018-12-29T20:14:03.291Z,8.80
2018-12-29T20:16:51.688Z,8.80
2018-12-29T20:19:39.605Z,8.80
2018-12-29T20:22:28.423Z,8.80
2018-12-29T20:25:16.739Z,8.90
2018-12-29T20:28:07.226Z,8.90
2018-12-29T20:30:55.664Z,9.00
2018-12-29T20:33:44.279Z,9.00
2018-12-29T20:36:32.122Z,9.00
2018-12-29T20:39:21.347Z,9.00
2018-12-29T20:42:10.422Z,8.90
2018-12-29T20:44:58.987Z,8.90
2018-12-29T20:47:49.300Z,9.00
2018-12-29T20:50:37.716Z,9.00
2018-12-29T20:53:25.949Z,9.00
2018-12-29T20:56:15.066Z,8.90
2018-12-29T20:59:05.211Z,8.80
2018-12-29T21:01:53.598Z,8.70
2018-12-29T21:04:42.703Z,8.70
2018-12-29T21:07:31.389Z,8.70
2018-12-29T21:10:19.765Z,8.70
2018-12-29T21:13:08.938Z,8.70
2018-12-29T21:15:57.164Z,8.70
2018-12-29T21:18:46.238Z,8.70
2018-12-29T21:21:35.173Z,8.70
2018-12-29T21:24:24.515Z,8.70
2018-12-29T21:27:12.888Z,8.60
2018-12-29T21:30:00.689Z,8.60
2018-12-29T21:32:49.939Z,8.50
2018-12-29T21:35:38.966Z,8.50
2018-12-29T21:38:28.083Z,8.40
2018-12-29T21:41:16.230Z,8.40
2018-12-29T21:44:04.806Z,8.40
2018-12-29T21:46:52.982Z,8.30
2018-12-29T21:49:41.488Z,8.30
2018-12-29T21:52:30.294Z,8.30
2018-12-29T21:55:20.459Z,8.30
2018-12-29T21:58:10.529Z,8.30
2018-12-29T22:00:58.733Z,8.30
2018-12-29T22:03:46.642Z,8.30
2018-12-29T22:06:36.291Z,8.20
2018-12-29T22:09:24.727Z,8.20
2018-12-29T22:12:13.377Z,8.20
2018-12-29T22:15:01.662Z,8.20
2018-12-29T22:17:50.858Z,8.20
2018-12-29T22:20:39.189Z,8.10
2018-12-29T22:23:28.706Z,8.20
2018-12-29T22:26:16.734Z,8.20
2018-12-29T22:29:05.455Z,8.20
2018-12-29T22:31:54.469Z,8.20
2018-12-29T22:34:42.763Z,8.20
2018-12-29T22:37:31.737Z,8.20
2018-12-29T22:40:19.977Z,8.20
2018-12-29T22:43:08.006Z,8.10
2018-12-29T22:45:57.739Z,8.20
2018-12-29T22:48:46.346Z,8.20
2018-12-29T22:51:34.714Z,8.20
2018-12-29T22:54:23.133Z,8.20
2018-12-29T22:57:11.380Z,8.20
2018-12-29T23:00:03.262Z,8.30
2018-12-29T23:02:50.926Z,8.30
2018-12-29T23:05:39.525Z,8.20
2018-12-29T23:08:28.307Z,8.30
2018-12-29T23:11:17.111Z,8.30
2018-12-29T23:14:05.381Z,8.20
2018-12-29T23:16:54.334Z,8.30
2018-12-29T23:19:42.772Z,8.30
2018-12-29T23:22:32.021Z,8.20
2018-12-29T23:25:20.561Z,8.30
2018-12-29T23:28:08.810Z,8.30
2018-12-29T23:30:57.642Z,8.30
2018-12-29T23:33:46.532Z,8.30
2018-12-29T23:36:34.914Z,8.30
2018-12-29T23:39:24.987Z,8.30
2018-12-29T23:42:14.231Z,8.30
2018-12-29T23:45:02.725Z,8.30
2018-12-29T23:47:52.392Z,8.30
2018-12-29T23:50:40.835Z,8.30
2018-12-29T23:53:28.944Z,8.30
2018-12-29T23:56:17.483Z,8.30
2018-12-29T23:59:06.291Z,8.30
